createdAt,value
2019-03-20T00:01:43.185Z,53.30
2019-03-20T00:03:34.052Z,53.28
2019-03-20T00:05:35.696Z,53.31
2019-03-20T00:07:37.307Z,53.31
2019-03-20T00:09:38.962Z,53.46
2019-03-20T00:11:40.649Z,53.39
2019-03-20T00:13:42.251Z,53.54
2019-03-20T00:15:43.860Z,53.79
2019-03-20T00:17:45.458Z,53.77
2019-03-20T00:19:47.068Z,53.65
2019-03-20T00:21:48.656Z,53.76
2019-03-20T00:23:50.250Z,53.74
2019-03-20T00:25:51.849Z,53.82
2019-03-20T00:27:53.447Z,53.82
2019-03-20T00:29:55.054Z,53.88
2019-03-20T00:31:56.653Z,53.85
2019-03-20T00:33:58.262Z,53.75
2019-03-20T00:35:59.880Z,54.07
2019-03-20T00:38:06.489Z,54.33
2019-03-20T00:40:08.082Z,54.34
2019-03-20T00:42:09.714Z,54.47
2019-03-20T00:44:11.412Z,54.58
2019-03-20T00:46:13.011Z,54.63
2019-03-20T00:48:14.605Z,54.60
2019-03-20T00:50:16.228Z,54.88
2019-03-20T00:52:17.876Z,54.92
2019-03-20T00:54:19.479Z,55.04
2019-03-20T00:56:21.282Z,55.14
2019-03-20T00:58:22.873Z,54.87
2019-03-20T01:00:24.490Z,55.15
2019-03-20T01:02:26.126Z,55.26
2019-03-20T01:04:27.763Z,55.10
2019-03-20T01:06:29.357Z,55.08
2019-03-20T01:08:30.950Z,55.56
2019-03-20T01:10:32.626Z,55.21
2019-03-20T01:12:34.226Z,55.14
2019-03-20T01:14:35.911Z,55.00
2019-03-20T01:16:37.506Z,55.35
2019-03-20T01:18:39.125Z,55.38
2019-03-20T01:20:40.855Z,55.66
2019-03-20T01:22:42.453Z,55.60
2019-03-20T01:24:44.091Z,55.52
2019-03-20T01:26:45.685Z,55.45
2019-03-20T01:28:47.332Z,55.39
2019-03-20T01:30:48.930Z,55.28
2019-03-20T01:32:50.526Z,55.43
2019-03-20T01:34:52.147Z,55.22
2019-03-20T01:36:53.742Z,55.36
2019-03-20T01:38:55.382Z,55.33
2019-03-20T01:40:56.999Z,55.13
2019-03-20T01:42:58.609Z,55.41
2019-03-20T01:45:00.425Z,55.40
2019-03-20T01:47:02.600Z,55.25
2019-03-20T01:49:06.400Z,55.22
2019-03-20T01:51:07.991Z,55.31
2019-03-20T01:53:09.607Z,55.19
2019-03-20T01:55:11.347Z,54.75
2019-03-20T01:57:12.942Z,53.82
2019-03-20T01:59:14.534Z,53.87
2019-03-20T02:01:16.126Z,53.98
2019-03-20T02:03:17.722Z,54.17
2019-03-20T02:05:19.349Z,54.26
2019-03-20T02:07:20.941Z,54.25
2019-03-20T02:09:22.536Z,54.34
2019-03-20T02:11:24.144Z,54.31
2019-03-20T02:13:25.753Z,54.35
2019-03-20T02:15:38.167Z,54.32
2019-03-20T02:17:29.008Z,54.38
2019-03-20T02:19:30.615Z,54.62
2019-03-20T02:21:32.255Z,55.00
2019-03-20T02:23:33.862Z,54.95
2019-03-20T02:25:35.444Z,55.56
2019-03-20T02:27:37.084Z,55.54
2019-03-20T02:29:38.692Z,55.56
2019-03-20T02:31:40.404Z,55.78
2019-03-20T02:33:42.020Z,55.88
2019-03-20T02:35:51.223Z,56.06
2019-03-20T02:37:45.316Z,55.89
2019-03-20T02:39:46.917Z,56.30
2019-03-20T02:41:48.543Z,56.47
2019-03-20T02:43:50.138Z,56.41
2019-03-20T02:45:51.748Z,56.44
2019-03-20T02:47:53.397Z,56.51
2019-03-20T02:49:55.007Z,56.90
2019-03-20T02:51:56.641Z,56.36
2019-03-20T02:53:58.242Z,56.76
2019-03-20T02:55:59.881Z,56.25
2019-03-20T02:58:06.504Z,56.89
2019-03-20T03:00:09.444Z,56.56
2019-03-20T03:02:11.044Z,56.24
2019-03-20T03:04:12.697Z,56.52
2019-03-20T03:06:14.309Z,56.15
2019-03-20T03:08:15.937Z,56.41
2019-03-20T03:10:17.562Z,56.61
2019-03-20T03:12:19.168Z,56.44
2019-03-20T03:14:20.809Z,56.60
2019-03-20T03:16:22.406Z,56.72
2019-03-20T03:18:24.046Z,56.73
2019-03-20T03:20:25.641Z,56.50
2019-03-20T03:22:27.240Z,56.38
2019-03-20T03:24:28.875Z,56.49
2019-03-20T03:26:30.466Z,56.66
2019-03-20T03:28:32.074Z,56.37
2019-03-20T03:30:33.699Z,56.59
2019-03-20T03:32:35.318Z,56.41
2019-03-20T03:34:36.943Z,56.39
2019-03-20T03:36:39.152Z,56.45
2019-03-20T03:38:40.766Z,56.38
2019-03-20T03:40:42.371Z,56.49
2019-03-20T03:42:43.975Z,56.63
2019-03-20T03:44:45.583Z,56.67
2019-03-20T03:46:47.197Z,56.67
2019-03-20T03:48:48.784Z,56.67
2019-03-20T03:50:50.391Z,56.92
2019-03-20T03:52:52.013Z,56.95
2019-03-20T03:54:53.601Z,57.02
2019-03-20T03:56:55.263Z,56.97
2019-03-20T03:58:56.877Z,57.25
2019-03-20T04:00:58.505Z,56.87
2019-03-20T04:03:00.116Z,56.94
2019-03-20T04:05:06.557Z,56.72
2019-03-20T04:07:08.254Z,56.85
2019-03-20T04:09:09.855Z,56.64
2019-03-20T04:11:11.507Z,56.67
2019-03-20T04:13:13.121Z,56.54
2019-03-20T04:15:14.738Z,56.53
2019-03-20T04:17:16.385Z,56.47
2019-03-20T04:19:18.005Z,56.40
2019-03-20T04:21:19.648Z,56.28
2019-03-20T04:23:21.248Z,56.41
2019-03-20T04:25:22.853Z,56.74
2019-03-20T04:27:24.499Z,56.84
2019-03-20T04:29:26.107Z,56.71
2019-03-20T04:31:27.930Z,57.07
2019-03-20T04:33:29.539Z,57.00
2019-03-20T04:35:31.152Z,56.74
2019-03-20T04:37:32.776Z,57.58
2019-03-20T04:39:34.369Z,57.70
2019-03-20T04:41:35.972Z,57.81
2019-03-20T04:43:37.575Z,58.24
2019-03-20T04:45:39.180Z,58.14
2019-03-20T04:47:40.813Z,58.16
2019-03-20T04:49:42.427Z,58.00
2019-03-20T04:51:44.057Z,57.95
2019-03-20T04:53:45.664Z,57.94
2019-03-20T04:55:47.280Z,58.01
2019-03-20T04:57:48.877Z,57.99
2019-03-20T04:59:50.485Z,57.79
2019-03-20T05:01:52.118Z,57.83
2019-03-20T05:03:53.755Z,57.74
2019-03-20T05:05:55.359Z,57.76
2019-03-20T05:07:56.971Z,57.67
2019-03-20T05:09:58.594Z,57.82
2019-03-20T05:12:00.190Z,57.40
2019-03-20T05:14:05.646Z,57.42
2019-03-20T05:16:07.277Z,57.29
2019-03-20T05:18:08.883Z,57.26
2019-03-20T05:20:10.468Z,57.36
2019-03-20T05:22:12.063Z,57.29
2019-03-20T05:24:13.684Z,57.59
2019-03-20T05:26:15.268Z,57.60
2019-03-20T05:28:16.865Z,57.67
2019-03-20T05:30:18.473Z,57.50
2019-03-20T05:32:20.068Z,57.51
2019-03-20T05:34:21.717Z,57.10
2019-03-20T05:36:23.338Z,57.36
2019-03-20T05:38:24.939Z,57.32
2019-03-20T05:40:26.534Z,56.72
2019-03-20T05:42:28.134Z,56.34
2019-03-20T05:44:29.812Z,56.83
2019-03-20T05:46:31.462Z,56.78
2019-03-20T05:48:33.072Z,56.65
2019-03-20T05:50:34.670Z,56.63
2019-03-20T05:52:36.299Z,56.63
2019-03-20T05:54:37.900Z,56.21
2019-03-20T05:56:39.562Z,56.11
2019-03-20T05:58:41.177Z,56.76
2019-03-20T06:00:42.775Z,56.14
2019-03-20T06:02:44.369Z,56.03
2019-03-20T06:04:45.985Z,55.93
2019-03-20T06:06:47.628Z,55.62
2019-03-20T06:08:49.226Z,55.28
2019-03-20T06:10:50.858Z,54.80
2019-03-20T06:12:52.468Z,54.87
2019-03-20T06:14:54.072Z,54.99
2019-03-20T06:16:55.894Z,55.17
2019-03-20T06:18:57.491Z,55.20
2019-03-20T06:20:59.068Z,55.38
2019-03-20T06:23:00.694Z,55.38
2019-03-20T06:25:07.378Z,55.34
2019-03-20T06:27:09.391Z,55.25
2019-03-20T06:29:11.003Z,55.34
2019-03-20T06:31:12.708Z,55.41
2019-03-20T06:33:14.288Z,55.43
2019-03-20T06:35:15.882Z,55.42
2019-03-20T06:37:17.541Z,55.45
2019-03-20T06:39:19.135Z,40.17
2019-03-20T06:41:20.730Z,39.20
2019-03-20T06:43:22.343Z,47.20
2019-03-20T06:45:24.128Z,46.42
2019-03-20T06:47:25.726Z,45.76
2019-03-20T06:49:27.328Z,45.91
2019-03-20T06:51:28.962Z,45.96
2019-03-20T06:53:30.554Z,46.33
2019-03-20T06:55:32.171Z,46.26
2019-03-20T06:57:33.771Z,46.34
2019-03-20T06:59:35.402Z,46.51
2019-03-20T07:01:37.003Z,46.68
2019-03-20T07:03:38.612Z,46.95
2019-03-20T07:05:40.212Z,47.09
2019-03-20T07:07:44.424Z,47.34
2019-03-20T07:09:43.466Z,47.48
2019-03-20T07:11:45.058Z,47.65
2019-03-20T07:13:46.664Z,47.77
2019-03-20T07:15:48.294Z,47.86
2019-03-20T07:17:49.891Z,48.02
2019-03-20T07:19:51.518Z,48.08
2019-03-20T07:21:53.120Z,48.26
2019-03-20T07:23:54.802Z,48.36
2019-03-20T07:25:56.409Z,48.46
2019-03-20T07:27:58.001Z,48.49
2019-03-20T07:29:59.594Z,48.61
2019-03-20T07:32:06.234Z,48.57
2019-03-20T07:36:14.895Z,48.70
2019-03-20T07:38:16.516Z,48.82
2019-03-20T07:40:18.183Z,48.93
2019-03-20T07:42:19.801Z,49.12
2019-03-20T07:44:21.422Z,49.27
2019-03-20T07:46:23.081Z,49.35
2019-03-20T07:48:24.708Z,49.51
2019-03-20T07:50:26.383Z,49.61
2019-03-20T07:52:28.009Z,49.73
2019-03-20T07:54:29.634Z,49.80
2019-03-20T07:56:31.305Z,49.92
2019-03-20T07:58:32.925Z,50.01
2019-03-20T08:00:34.567Z,49.89
2019-03-20T08:02:36.237Z,49.85
2019-03-20T08:04:37.867Z,49.95
2019-03-20T08:06:39.500Z,49.89
2019-03-20T08:08:41.158Z,50.13
2019-03-20T08:10:42.782Z,50.32
2019-03-20T08:12:44.426Z,50.12
2019-03-20T08:14:46.050Z,50.17
2019-03-20T08:16:47.685Z,50.23
2019-03-20T08:18:49.314Z,50.43
2019-03-20T08:20:50.938Z,50.43
2019-03-20T08:22:52.602Z,50.08
2019-03-20T08:24:55.769Z,49.84
2019-03-20T08:26:55.939Z,49.66
2019-03-20T08:28:57.607Z,49.68
2019-03-20T08:30:59.229Z,49.65
2019-03-20T08:33:00.894Z,49.64
2019-03-20T08:35:06.710Z,49.47
2019-03-20T08:37:08.338Z,49.41
2019-03-20T08:39:09.958Z,49.34
2019-03-20T08:41:11.578Z,49.16
2019-03-20T08:43:13.254Z,49.10
2019-03-20T08:45:14.884Z,49.01
2019-03-20T08:47:16.506Z,49.09
2019-03-20T08:49:18.130Z,49.08
2019-03-20T08:51:19.754Z,49.47
2019-03-20T08:53:21.413Z,49.67
2019-03-20T08:55:23.078Z,49.76
2019-03-20T08:57:24.712Z,49.90
2019-03-20T08:59:26.359Z,49.95
2019-03-20T09:01:29.049Z,50.09
2019-03-20T09:03:29.750Z,50.15
2019-03-20T09:05:31.392Z,50.27
2019-03-20T09:07:33.019Z,50.24
2019-03-20T09:09:34.699Z,50.00
2019-03-20T09:11:36.324Z,49.51
2019-03-20T09:13:37.955Z,49.77
2019-03-20T09:15:39.613Z,50.21
2019-03-20T09:17:41.238Z,50.58
2019-03-20T09:19:42.867Z,50.79
2019-03-20T09:21:44.490Z,50.93
2019-03-20T09:23:46.117Z,50.47
2019-03-20T09:25:47.774Z,50.26
2019-03-20T09:27:49.397Z,50.49
2019-03-20T09:29:51.081Z,50.51
2019-03-20T09:31:52.705Z,50.52
2019-03-20T09:33:54.352Z,50.95
2019-03-20T09:35:56.051Z,50.99
2019-03-20T09:37:57.678Z,50.82
2019-03-20T09:39:59.349Z,50.78
2019-03-20T09:42:05.975Z,51.10
2019-03-20T09:44:07.698Z,50.79
2019-03-20T09:46:09.371Z,51.28
2019-03-20T09:48:11.703Z,51.50
2019-03-20T09:50:13.335Z,51.09
2019-03-20T09:52:14.954Z,51.24
2019-03-20T09:54:16.583Z,51.20
2019-03-20T09:56:18.207Z,51.47
2019-03-20T09:58:19.834Z,51.39
2019-03-20T10:00:21.457Z,50.60
2019-03-20T10:02:23.173Z,50.03
2019-03-20T10:04:24.803Z,49.55
2019-03-20T10:06:26.467Z,49.59
2019-03-20T10:08:28.110Z,49.86
2019-03-20T10:10:29.787Z,46.60
2019-03-20T10:12:31.410Z,48.55
2019-03-20T10:14:33.034Z,48.28
2019-03-20T10:16:34.810Z,47.99
2019-03-20T10:18:36.438Z,48.28
2019-03-20T10:20:38.062Z,47.42
2019-03-20T10:22:39.681Z,47.50
2019-03-20T10:24:41.307Z,49.04
2019-03-20T10:26:42.934Z,49.54
2019-03-20T10:28:44.554Z,49.26
2019-03-20T10:30:46.180Z,48.88
2019-03-20T10:32:47.802Z,49.11
2019-03-20T10:34:49.422Z,48.86
2019-03-20T10:36:51.110Z,48.70
2019-03-20T10:38:52.802Z,48.61
2019-03-20T10:40:54.426Z,48.56
2019-03-20T10:42:56.108Z,48.66
2019-03-20T10:44:57.738Z,49.12
2019-03-20T10:46:59.402Z,48.98
2019-03-20T10:49:06.017Z,48.87
2019-03-20T10:51:07.739Z,48.73
2019-03-20T10:53:09.363Z,48.66
2019-03-20T10:55:10.987Z,48.66
2019-03-20T10:57:12.628Z,48.73
2019-03-20T10:59:14.267Z,48.72
2019-03-20T11:01:15.951Z,48.71
2019-03-20T11:03:17.574Z,49.18
2019-03-20T11:05:19.409Z,49.13
2019-03-20T11:07:21.035Z,47.65
2019-03-20T11:09:22.662Z,47.27
2019-03-20T11:11:27.289Z,46.78
2019-03-20T11:13:26.121Z,47.16
2019-03-20T11:15:29.679Z,47.23
2019-03-20T11:17:29.458Z,46.36
2019-03-20T11:19:31.078Z,47.29
2019-03-20T11:21:32.714Z,47.99
2019-03-20T11:23:34.338Z,47.83
2019-03-20T11:25:36.085Z,46.68
2019-03-20T11:27:37.718Z,45.97
2019-03-20T11:29:39.351Z,46.77
2019-03-20T11:31:40.978Z,47.31
2019-03-20T11:33:42.601Z,47.72
2019-03-20T11:35:44.273Z,47.22
2019-03-20T11:37:45.902Z,46.76
2019-03-20T11:39:47.522Z,47.90
2019-03-20T11:41:49.145Z,49.05
2019-03-20T11:43:50.768Z,49.11
2019-03-20T11:45:52.391Z,49.28
2019-03-20T11:47:54.157Z,49.20
2019-03-20T11:49:56.506Z,49.06
2019-03-20T11:51:58.126Z,48.83
2019-03-20T11:53:59.786Z,48.75
2019-03-20T11:56:04.942Z,48.70
2019-03-20T11:58:06.675Z,48.67
2019-03-20T12:00:08.298Z,48.67
2019-03-20T12:02:10.074Z,48.70
2019-03-20T12:04:11.707Z,48.68
2019-03-20T12:06:13.472Z,48.65
2019-03-20T12:08:15.194Z,48.61
2019-03-20T12:10:16.826Z,48.66
2019-03-20T12:12:18.448Z,48.57
2019-03-20T12:14:20.079Z,48.48
2019-03-20T12:16:21.706Z,48.45
2019-03-20T12:18:23.378Z,48.40
2019-03-20T12:20:24.998Z,48.40
2019-03-20T12:22:26.650Z,48.35
2019-03-20T12:24:28.282Z,48.46
2019-03-20T12:26:29.910Z,48.34
2019-03-20T12:28:31.596Z,48.33
2019-03-20T12:30:33.238Z,48.54
2019-03-20T12:32:34.862Z,48.51
2019-03-20T12:34:36.491Z,48.50
2019-03-20T12:36:38.123Z,48.50
2019-03-20T12:38:39.790Z,48.35
2019-03-20T12:40:41.677Z,47.76
2019-03-20T12:42:43.306Z,47.70
2019-03-20T12:44:44.936Z,47.27
2019-03-20T12:46:46.700Z,47.75
2019-03-20T12:48:48.343Z,48.08
2019-03-20T12:50:49.969Z,48.22
2019-03-20T12:52:51.630Z,48.30
2019-03-20T12:54:53.342Z,48.46
2019-03-20T12:56:54.970Z,48.58
2019-03-20T12:58:56.705Z,48.54
2019-03-20T13:00:58.375Z,48.80
2019-03-20T13:03:00.003Z,48.83
2019-03-20T13:05:07.360Z,48.75
2019-03-20T13:07:08.995Z,48.89
2019-03-20T13:09:10.617Z,49.12
2019-03-20T13:11:13.362Z,49.18
2019-03-20T13:13:15.042Z,49.18
2019-03-20T13:15:16.677Z,49.28
2019-03-20T13:17:18.393Z,49.49
2019-03-20T13:19:20.023Z,49.62
2019-03-20T13:21:22.002Z,49.70
2019-03-20T13:23:23.625Z,49.78
2019-03-20T13:25:25.292Z,49.81
2019-03-20T13:27:26.915Z,49.89
2019-03-20T13:29:28.549Z,49.98
2019-03-20T13:31:31.295Z,50.03
2019-03-20T13:33:32.921Z,50.07
2019-03-20T13:35:34.745Z,50.20
2019-03-20T13:37:36.370Z,50.30
2019-03-20T13:39:37.998Z,50.52
2019-03-20T13:41:39.716Z,50.58
2019-03-20T13:43:41.358Z,50.64
2019-03-20T13:45:43.218Z,50.77
2019-03-20T13:47:44.878Z,50.85
2019-03-20T13:49:46.507Z,50.84
2019-03-20T13:51:48.182Z,51.01
2019-03-20T13:53:49.858Z,51.00
2019-03-20T13:55:51.486Z,51.21
2019-03-20T13:57:53.110Z,51.20
2019-03-20T13:59:54.734Z,51.33
2019-03-20T14:01:56.357Z,51.46
2019-03-20T14:03:58.018Z,51.50
2019-03-20T14:05:59.682Z,51.45
2019-03-20T14:08:06.699Z,51.47
2019-03-20T14:10:08.354Z,51.65
2019-03-20T14:12:10.200Z,51.73
2019-03-20T14:14:11.824Z,51.76
2019-03-20T14:16:13.446Z,51.79
2019-03-20T14:18:15.112Z,51.74
2019-03-20T14:20:17.106Z,51.56
2019-03-20T14:22:18.750Z,51.75
2019-03-20T14:24:20.404Z,51.67
2019-03-20T14:26:22.158Z,51.60
2019-03-20T14:28:23.781Z,51.67
2019-03-20T14:30:25.452Z,51.71
2019-03-20T14:32:27.078Z,51.69
2019-03-20T14:34:28.702Z,51.60
2019-03-20T14:36:30.366Z,51.54
2019-03-20T14:38:32.006Z,51.55
2019-03-20T14:40:36.964Z,51.54
2019-03-20T14:42:35.349Z,51.53
2019-03-20T14:44:36.970Z,51.57
2019-03-20T14:46:38.594Z,51.67
2019-03-20T14:48:40.269Z,51.57
2019-03-20T14:50:41.900Z,51.45
2019-03-20T14:52:43.522Z,51.55
2019-03-20T14:54:45.142Z,51.58
2019-03-20T14:56:46.761Z,51.57
2019-03-20T14:58:48.393Z,51.56
2019-03-20T15:00:50.093Z,51.62
2019-03-20T15:02:51.872Z,51.76
2019-03-20T15:04:53.549Z,51.93
2019-03-20T15:06:55.206Z,52.00
2019-03-20T15:08:56.849Z,52.03
2019-03-20T15:10:58.474Z,52.21
2019-03-20T15:13:00.094Z,52.20
2019-03-20T15:15:06.648Z,52.20
2019-03-20T15:17:08.494Z,52.28
2019-03-20T15:19:10.210Z,52.37
2019-03-20T15:21:12.850Z,52.51
2019-03-20T15:23:14.473Z,52.55
2019-03-20T15:25:16.158Z,52.67
2019-03-20T15:27:18.022Z,52.68
2019-03-20T15:29:19.655Z,52.77
2019-03-20T15:31:21.273Z,52.75
2019-03-20T15:33:22.904Z,52.83
2019-03-20T15:35:24.542Z,52.80
2019-03-20T15:37:26.214Z,52.95
2019-03-20T15:39:27.874Z,53.06
2019-03-20T15:41:29.499Z,53.08
2019-03-20T15:43:31.135Z,53.24
2019-03-20T15:45:33.047Z,53.28
2019-03-20T15:47:35.267Z,53.42
2019-03-20T15:49:36.891Z,53.23
2019-03-20T15:51:38.514Z,53.38
2019-03-20T15:53:40.142Z,53.33
2019-03-20T15:55:41.767Z,53.47
2019-03-20T15:57:43.426Z,53.63
2019-03-20T15:59:45.051Z,53.55
2019-03-20T16:01:46.674Z,53.54
2019-03-20T16:03:48.346Z,53.39
2019-03-20T16:05:50.554Z,52.53
2019-03-20T16:07:52.230Z,51.54
2019-03-20T16:09:54.222Z,51.09
2019-03-20T16:11:55.846Z,51.56
2019-03-20T16:13:57.470Z,51.79
2019-03-20T16:15:59.214Z,50.95
2019-03-20T16:18:00.886Z,50.59
2019-03-20T16:20:07.449Z,50.35
2019-03-20T16:22:09.074Z,50.29
2019-03-20T16:24:10.729Z,50.36
2019-03-20T16:26:12.340Z,50.95
2019-03-20T16:28:13.970Z,51.13
2019-03-20T16:30:15.575Z,51.17
2019-03-20T16:32:17.188Z,50.34
2019-03-20T16:34:18.799Z,50.79
2019-03-20T16:36:20.402Z,50.17
2019-03-20T16:38:21.999Z,51.02
2019-03-20T16:40:23.646Z,50.63
2019-03-20T16:42:25.285Z,49.72
2019-03-20T16:44:26.936Z,50.41
2019-03-20T16:46:28.540Z,51.46
2019-03-20T16:48:30.144Z,50.07
2019-03-20T16:50:31.920Z,49.27
2019-03-20T16:52:33.550Z,47.95
2019-03-20T16:54:35.155Z,48.34
2019-03-20T16:56:36.753Z,48.43
2019-03-20T16:58:38.401Z,48.44
2019-03-20T17:00:40.012Z,49.15
2019-03-20T17:02:41.652Z,49.87
2019-03-20T17:04:43.286Z,49.77
2019-03-20T17:06:44.933Z,49.18
2019-03-20T17:08:46.583Z,48.34
2019-03-20T17:10:48.860Z,46.71
2019-03-20T17:12:50.642Z,48.40
2019-03-20T17:14:52.521Z,48.56
2019-03-20T17:16:54.250Z,49.06
2019-03-20T17:18:56.766Z,49.49
2019-03-20T17:20:58.722Z,50.09
2019-03-20T17:23:00.501Z,50.42
2019-03-20T17:25:05.756Z,50.68
2019-03-20T17:27:07.382Z,51.03
2019-03-20T17:29:09.419Z,51.00
2019-03-20T17:31:10.711Z,51.08
2019-03-20T17:33:12.589Z,51.14
2019-03-20T17:35:14.213Z,51.15
2019-03-20T17:37:17.171Z,51.34
2019-03-20T17:39:18.774Z,51.39
2019-03-20T17:41:20.378Z,51.38
2019-03-20T17:43:22.019Z,51.66
2019-03-20T17:45:23.618Z,51.64
2019-03-20T17:47:25.381Z,51.59
2019-03-20T17:49:27.223Z,51.71
2019-03-20T17:51:28.846Z,51.69
2019-03-20T17:53:30.544Z,52.14
2019-03-20T17:55:32.154Z,51.78
2019-03-20T17:57:33.808Z,51.98
2019-03-20T17:59:35.416Z,52.10
2019-03-20T18:01:37.011Z,50.90
2019-03-20T18:03:38.658Z,51.24
2019-03-20T18:05:40.262Z,51.07
2019-03-20T18:07:41.912Z,50.51
2019-03-20T18:09:43.510Z,50.44
2019-03-20T18:11:47.747Z,50.31
2019-03-20T18:13:46.802Z,50.13
2019-03-20T18:15:48.405Z,50.24
2019-03-20T18:17:50.034Z,50.01
2019-03-20T18:19:51.633Z,50.31
2019-03-20T18:21:53.230Z,50.08
2019-03-20T18:23:54.861Z,50.19
2019-03-20T18:25:56.472Z,49.97
2019-03-20T18:27:58.088Z,50.20
2019-03-20T18:29:59.672Z,50.43
2019-03-20T18:32:05.089Z,50.24
2019-03-20T18:34:08.488Z,50.29
2019-03-20T18:36:10.165Z,49.96
2019-03-20T18:38:11.900Z,50.17
2019-03-20T18:40:13.504Z,49.83
2019-03-20T18:42:15.107Z,50.21
2019-03-20T18:44:16.730Z,50.53
2019-03-20T18:46:18.323Z,50.93
2019-03-20T18:48:19.905Z,50.83
2019-03-20T18:50:21.519Z,50.52
2019-03-20T18:52:23.115Z,50.14
2019-03-20T18:54:24.743Z,49.97
2019-03-20T18:56:26.357Z,50.10
2019-03-20T18:58:27.958Z,49.90
2019-03-20T19:00:29.594Z,49.76
2019-03-20T19:02:31.190Z,49.72
2019-03-20T19:04:32.800Z,49.66
2019-03-20T19:06:34.408Z,49.38
2019-03-20T19:08:36.046Z,49.62
2019-03-20T19:10:37.839Z,50.48
2019-03-20T19:12:39.489Z,50.03
2019-03-20T19:14:41.142Z,50.63
2019-03-20T19:16:42.741Z,50.66
2019-03-20T19:18:44.342Z,49.84
2019-03-20T19:20:45.991Z,49.96
2019-03-20T19:22:47.647Z,49.63
2019-03-20T19:24:49.228Z,49.92
2019-03-20T19:26:50.822Z,50.30
2019-03-20T19:28:52.457Z,49.47
2019-03-20T19:30:54.057Z,49.59
2019-03-20T19:32:55.642Z,49.82
2019-03-20T19:34:57.248Z,49.69
2019-03-20T19:36:58.864Z,49.56
2019-03-20T19:39:00.508Z,49.65
2019-03-20T19:41:08.824Z,50.25
2019-03-20T19:43:08.766Z,49.79
2019-03-20T19:45:10.362Z,49.44
2019-03-20T19:47:11.972Z,50.03
2019-03-20T19:49:13.719Z,49.63
2019-03-20T19:51:15.353Z,49.46
2019-03-20T19:53:17.118Z,49.93
2019-03-20T19:55:18.717Z,49.99
2019-03-20T19:57:20.310Z,49.76
2019-03-20T19:59:21.910Z,49.89
2019-03-20T20:01:23.541Z,49.79
2019-03-20T20:03:25.139Z,49.79
2019-03-20T20:05:26.796Z,49.88
2019-03-20T20:07:28.399Z,50.64
2019-03-20T20:09:29.994Z,50.06
2019-03-20T20:11:31.635Z,49.94
2019-03-20T20:13:33.247Z,49.53
2019-03-20T20:15:34.851Z,50.38
2019-03-20T20:17:36.460Z,49.53
2019-03-20T20:19:38.130Z,49.57
2019-03-20T20:21:39.722Z,49.26
2019-03-20T20:23:41.304Z,49.47
2019-03-20T20:25:42.934Z,48.77
2019-03-20T20:27:44.598Z,48.97
2019-03-20T20:29:46.234Z,48.85
2019-03-20T20:31:47.959Z,49.53
2019-03-20T20:33:49.560Z,49.03
2019-03-20T20:35:51.323Z,48.38
2019-03-20T20:37:52.928Z,49.21
2019-03-20T20:39:54.523Z,49.22
2019-03-20T20:41:56.134Z,49.32
2019-03-20T20:43:57.750Z,48.88
2019-03-20T20:45:59.386Z,48.71
2019-03-20T20:48:05.981Z,48.84
2019-03-20T20:50:07.591Z,48.99
2019-03-20T20:52:19.129Z,49.14
2019-03-20T20:54:10.856Z,49.38
2019-03-20T20:56:12.503Z,49.08
2019-03-20T20:58:14.098Z,49.20
2019-03-20T21:00:15.708Z,49.17
2019-03-20T21:02:17.330Z,49.30
2019-03-20T21:04:18.941Z,49.37
2019-03-20T21:06:20.588Z,48.88
2019-03-20T21:08:23.249Z,48.98
2019-03-20T21:10:25.044Z,48.98
2019-03-20T21:12:26.645Z,49.79
2019-03-20T21:14:28.245Z,49.01
2019-03-20T21:16:29.842Z,48.66
2019-03-20T21:18:31.443Z,49.17
2019-03-20T21:20:33.270Z,49.11
2019-03-20T21:22:34.919Z,49.43
2019-03-20T21:24:36.518Z,49.33
2019-03-20T21:26:38.168Z,48.84
2019-03-20T21:28:39.752Z,49.10
2019-03-20T21:30:41.350Z,49.65
2019-03-20T21:32:42.955Z,49.62
2019-03-20T21:34:44.568Z,48.89
2019-03-20T21:36:46.204Z,50.06
2019-03-20T21:38:48.032Z,50.38
2019-03-20T21:40:49.644Z,50.76
2019-03-20T21:42:51.289Z,50.81
2019-03-20T21:44:52.900Z,50.73
2019-03-20T21:46:54.546Z,50.74
2019-03-20T21:48:56.137Z,50.65
2019-03-20T21:50:58.479Z,50.29
2019-03-20T21:53:00.126Z,50.41
2019-03-20T21:55:07.224Z,50.22
2019-03-20T21:57:08.877Z,49.67
2019-03-20T21:59:10.479Z,50.03
2019-03-20T22:01:12.266Z,50.12
2019-03-20T22:03:13.894Z,49.93
2019-03-20T22:05:23.032Z,49.95
2019-03-20T22:07:17.180Z,50.32
2019-03-20T22:09:18.861Z,50.62
2019-03-20T22:11:20.510Z,50.29
2019-03-20T22:13:22.111Z,50.08
2019-03-20T22:15:23.709Z,50.64
2019-03-20T22:17:25.454Z,50.42
2019-03-20T22:19:27.225Z,50.20
2019-03-20T22:21:28.821Z,50.08
2019-03-20T22:23:30.424Z,50.06
2019-03-20T22:25:33.042Z,50.10
2019-03-20T22:27:34.623Z,51.01
2019-03-20T22:29:36.268Z,50.24
2019-03-20T22:31:37.866Z,50.12
2019-03-20T22:33:39.448Z,50.04
2019-03-20T22:35:41.077Z,50.04
2019-03-20T22:37:42.802Z,50.24
2019-03-20T22:39:44.397Z,50.49
2019-03-20T22:41:46.020Z,50.62
2019-03-20T22:43:48.080Z,50.24
2019-03-20T22:45:49.686Z,50.42
2019-03-20T22:47:51.288Z,50.75
2019-03-20T22:49:52.922Z,50.37
2019-03-20T22:51:54.523Z,50.72
2019-03-20T22:53:56.117Z,50.72
2019-03-20T22:55:57.700Z,50.53
2019-03-20T22:57:59.307Z,50.80
2019-03-20T23:02:07.628Z,50.34
2019-03-20T23:04:09.213Z,50.11
2019-03-20T23:06:10.816Z,50.08
2019-03-20T23:08:12.427Z,50.49
2019-03-20T23:10:14.067Z,50.60
2019-03-20T23:12:17.813Z,50.47
2019-03-20T23:14:17.345Z,50.64
2019-03-20T23:16:18.960Z,50.15
2019-03-20T23:18:20.657Z,50.10
2019-03-20T23:20:22.281Z,50.38
2019-03-20T23:22:23.887Z,50.37
2019-03-20T23:24:25.482Z,50.99
2019-03-20T23:26:27.092Z,50.73
2019-03-20T23:28:28.725Z,50.42
2019-03-20T23:30:30.318Z,50.23
2019-03-20T23:32:31.928Z,50.21
2019-03-20T23:34:33.575Z,50.34
2019-03-20T23:36:35.182Z,50.44
2019-03-20T23:38:36.777Z,50.92
2019-03-20T23:40:38.505Z,50.84
2019-03-20T23:42:40.542Z,50.83
2019-03-20T23:44:42.173Z,51.13
2019-03-20T23:46:43.784Z,50.75
2019-03-20T23:48:45.380Z,50.82
2019-03-20T23:50:47.028Z,50.47
2019-03-20T23:52:48.621Z,50.00
2019-03-20T23:54:50.260Z,50.38
2019-03-20T23:56:51.872Z,50.71
2019-03-20T23:58:53.553Z,51.03
